sensor_id;sensor_type;location;lat;lon;timestamp;pressure;altitude;pressure_sealevel;temperature;humidity
48800;BME280;34611;47.964;7.982;2023-03-18T00:06:25;96460.28;;;10.16;59.58
48800;BME280;34611;47.964;7.982;2023-03-18T00:13:26;96449.22;;;10.13;59.72
48800;BME280;34611;47.964;7.982;2023-03-18T00:20:26;96457.00;;;10.13;59.89
48800;BME280;34611;47.964;7.982;2023-03-18T00:27:40;96454.41;;;10.13;59.66
48800;BME280;34611;47.964;7.982;2023-03-18T00:34:40;96461.41;;;10.13;59.86
48800;BME280;34611;47.964;7.982;2023-03-18T00:41:41;96461.28;;;10.15;59.58
48800;BME280;34611;47.964;7.982;2023-03-18T00:48:42;96459.63;;;10.13;59.72
48800;BME280;34611;47.964;7.982;2023-03-18T00:55:43;96459.63;;;10.13;59.77
48800;BME280;34611;47.964;7.982;2023-03-18T01:02:43;96455.22;;;10.14;59.64
48800;BME280;34611;47.964;7.982;2023-03-18T01:09:44;96456.88;;;10.15;59.58
48800;BME280;34611;47.964;7.982;2023-03-18T01:16:44;96459.50;;;10.15;59.58
48800;BME280;34611;47.964;7.982;2023-03-18T01:23:45;96466.47;;;10.15;59.81
48800;BME280;34611;47.964;7.982;2023-03-18T01:30:46;96450.88;;;10.15;59.72
48800;BME280;34611;47.964;7.982;2023-03-18T01:37:48;96456.88;;;10.15;59.63
48800;BME280;34611;47.964;7.982;2023-03-18T01:44:48;96455.09;;;10.16;59.55
48800;BME280;34611;47.964;7.982;2023-03-18T01:51:55;96454.28;;;10.15;59.62
48800;BME280;34611;47.964;7.982;2023-03-18T01:58:58;96444.84;;;10.14;59.68
48800;BME280;34611;47.964;7.982;2023-03-18T02:05:59;96436.91;;;10.16;59.54
48800;BME280;34611;47.964;7.982;2023-03-18T02:13:05;96425.84;;;10.13;59.83
48800;BME280;34611;47.964;7.982;2023-03-18T02:34:15;96415.34;;;10.15;59.63
48800;BME280;34611;47.964;7.982;2023-03-18T02:41:21;96430.09;;;10.15;59.64
48800;BME280;34611;47.964;7.982;2023-03-18T02:48:22;96427.63;;;10.13;59.79
48800;BME280;34611;47.964;7.982;2023-03-18T02:55:23;96435.28;;;10.15;59.62
48800;BME280;34611;47.964;7.982;2023-03-18T03:02:23;96430.91;;;10.15;59.70
48800;BME280;34611;47.964;7.982;2023-03-18T03:09:23;96430.91;;;10.15;59.76
48800;BME280;34611;47.964;7.982;2023-03-18T03:16:24;96424.06;;;10.14;59.68
48800;BME280;34611;47.964;7.982;2023-03-18T03:23:24;96433.50;;;10.15;59.70
48800;BME280;34611;47.964;7.982;2023-03-18T03:30:25;96432.69;;;10.15;59.63
48800;BME280;34611;47.964;7.982;2023-03-18T03:37:25;96435.28;;;10.15;59.77
48800;BME280;34611;47.964;7.982;2023-03-18T03:44:29;96436.13;;;10.15;59.85
48800;BME280;34611;47.964;7.982;2023-03-18T03:51:29;96441.31;;;10.15;59.72
48800;BME280;34611;47.964;7.982;2023-03-18T03:58:30;96430.91;;;10.15;59.66
48800;BME280;34611;47.964;7.982;2023-03-18T04:05:30;96431.72;;;10.16;59.77
48800;BME280;34611;47.964;7.982;2023-03-18T04:12:32;96434.31;;;10.16;59.79
48800;BME280;34611;47.964;7.982;2023-03-18T04:19:34;96437.75;;;10.16;59.60
48800;BME280;34611;47.964;7.982;2023-03-18T04:26:36;96436.91;;;10.16;59.83
48800;BME280;34611;47.964;7.982;2023-03-18T04:33:38;96431.72;;;10.16;59.66
48800;BME280;34611;47.964;7.982;2023-03-18T04:40:39;96436.13;;;10.15;59.53
48800;BME280;34611;47.964;7.982;2023-03-18T04:47:40;96431.72;;;10.16;59.72
48800;BME280;34611;47.964;7.982;2023-03-18T04:54:40;96442.13;;;10.16;59.75
48800;BME280;34611;47.964;7.982;2023-03-18T05:01:42;96441.31;;;10.15;59.47
48800;BME280;34611;47.964;7.982;2023-03-18T05:08:42;96437.91;;;10.15;59.72
48800;BME280;34611;47.964;7.982;2023-03-18T05:15:44;96444.72;;;10.16;59.71
48800;BME280;34611;47.964;7.982;2023-03-18T05:22:45;96442.13;;;10.16;59.77
48800;BME280;34611;47.964;7.982;2023-03-18T05:29:58;96442.13;;;10.16;59.59
48800;BME280;34611;47.964;7.982;2023-03-18T05:37:11;96446.50;;;10.15;59.78
48800;BME280;34611;47.964;7.982;2023-03-18T05:44:17;96452.50;;;10.16;59.77
48800;BME280;34611;47.964;7.982;2023-03-18T05:51:22;96452.50;;;10.16;59.79
48800;BME280;34611;47.964;7.982;2023-03-18T05:58:22;96457.69;;;10.16;59.79
48800;BME280;34611;47.964;7.982;2023-03-18T06:05:29;96465.50;;;10.16;59.53
48800;BME280;34611;47.964;7.982;2023-03-18T06:12:29;96458.50;;;10.16;59.67
48800;BME280;34611;47.964;7.982;2023-03-18T06:19:31;96473.28;;;10.16;59.58
48800;BME280;34611;47.964;7.982;2023-03-18T06:26:33;96478.34;;;10.17;59.70
48800;BME280;34611;47.964;7.982;2023-03-18T06:33:36;96484.50;;;10.16;59.62
48800;BME280;34611;47.964;7.982;2023-03-18T06:40:38;96483.69;;;10.16;59.64
48800;BME280;34611;47.964;7.982;2023-03-18T06:47:39;96485.34;;;10.17;59.58
48800;BME280;34611;47.964;7.982;2023-03-18T06:54:40;96485.34;;;10.17;59.73
48800;BME280;34611;47.964;7.982;2023-03-18T07:01:41;96495.72;;;10.17;59.55
48800;BME280;34611;47.964;7.982;2023-03-18T07:08:42;96498.31;;;10.17;59.79
48800;BME280;34611;47.964;7.982;2023-03-18T07:15:44;96496.53;;;10.17;59.58
48800;BME280;34611;47.964;7.982;2023-03-18T07:22:45;96494.88;;;10.16;59.69
48800;BME280;34611;47.964;7.982;2023-03-18T07:29:46;96505.16;;;10.18;59.74
48800;BME280;34611;47.964;7.982;2023-03-18T07:36:46;96518.13;;;10.18;59.74
48800;BME280;34611;47.964;7.982;2023-03-18T07:43:46;96513.06;;;10.16;59.55
48800;BME280;34611;47.964;7.982;2023-03-18T07:50:47;96510.34;;;10.18;59.68
48800;BME280;34611;47.964;7.982;2023-03-18T07:57:47;96516.50;;;10.17;59.57
48800;BME280;34611;47.964;7.982;2023-03-18T08:04:48;96506.94;;;10.17;59.62
48800;BME280;34611;47.964;7.982;2023-03-18T08:11:48;96515.66;;;10.16;59.54
48800;BME280;34611;47.964;7.982;2023-03-18T08:18:48;96517.31;;;10.17;59.60
48800;BME280;34611;47.964;7.982;2023-03-18T08:25:49;96511.31;;;10.17;59.62
48800;BME280;34611;47.964;7.982;2023-03-18T08:32:49;96516.50;;;10.17;59.61
48800;BME280;34611;47.964;7.982;2023-03-18T08:39:50;96513.91;;;10.17;59.64
48800;BME280;34611;47.964;7.982;2023-03-18T08:46:50;96507.75;;;10.18;59.59
48800;BME280;34611;47.964;7.982;2023-03-18T08:53:50;96494.75;;;10.18;59.78
48800;BME280;34611;47.964;7.982;2023-03-18T09:00:50;96486.16;;;10.17;59.71
48800;BME280;34611;47.964;7.982;2023-03-18T09:07:53;96479.16;;;10.18;59.61
48800;BME280;34611;47.964;7.982;2023-03-18T09:14:54;96477.53;;;10.17;59.78
48800;BME280;34611;47.964;7.982;2023-03-18T09:21:54;96480.13;;;10.17;59.63
48800;BME280;34611;47.964;7.982;2023-03-18T09:28:55;96467.97;;;10.17;59.67
48800;BME280;34611;47.964;7.982;2023-03-18T09:35:55;96473.97;;;10.18;59.58
48800;BME280;34611;47.964;7.982;2023-03-18T09:43:01;96471.38;;;10.18;59.78
48800;BME280;34611;47.964;7.982;2023-03-18T09:57:05;96467.00;;;10.18;59.73
48800;BME280;34611;47.964;7.982;2023-03-18T10:04:18;96467.00;;;10.18;59.73
48800;BME280;34611;47.964;7.982;2023-03-18T10:11:25;96455.91;;;10.16;59.73
48800;BME280;34611;47.964;7.982;2023-03-18T10:18:28;96451.56;;;10.17;59.50
48800;BME280;34611;47.964;7.982;2023-03-18T10:32:34;96455.78;;;10.18;59.62
48800;BME280;34611;47.964;7.982;2023-03-18T10:39:37;96458.38;;;10.18;59.57
48800;BME280;34611;47.964;7.982;2023-03-18T10:46:38;96447.03;;;10.19;59.68
48800;BME280;34611;47.964;7.982;2023-03-18T10:54:01;96442.81;;;10.18;59.60
48800;BME280;34611;47.964;7.982;2023-03-18T11:01:04;96434.03;;;10.19;59.59
48800;BME280;34611;47.964;7.982;2023-03-18T11:08:07;96437.59;;;10.18;59.57
48800;BME280;34611;47.964;7.982;2023-03-18T11:15:11;96436.78;;;10.17;59.78
48800;BME280;34611;47.964;7.982;2023-03-18T11:22:18;96440.19;;;10.18;59.58
48800;BME280;34611;47.964;7.982;2023-03-18T11:29:22;96432.41;;;10.18;59.80
48800;BME280;34611;47.964;7.982;2023-03-18T11:36:25;96432.41;;;10.18;59.73
48800;BME280;34611;47.964;7.982;2023-03-18T11:43:26;96418.63;;;10.17;59.57
48800;BME280;34611;47.964;7.982;2023-03-18T11:50:29;96424.63;;;10.18;59.62
48800;BME280;34611;47.964;7.982;2023-03-18T12:12:13;96404.66;;;10.18;59.50
48800;BME280;34611;47.964;7.982;2023-03-18T12:33:42;96389.06;;;10.18;59.68
48800;BME280;34611;47.964;7.982;2023-03-18T12:40:49;96387.28;;;10.19;59.67
48800;BME280;34611;47.964;7.982;2023-03-18T12:55:03;96389.06;;;10.18;59.67
48800;BME280;34611;47.964;7.982;2023-03-18T13:09:26;96375.94;;;10.20;59.61
48800;BME280;34611;47.964;7.982;2023-03-18T13:16:32;96369.09;;;10.19;59.53
48800;BME280;34611;47.964;7.982;2023-03-18T13:45:04;96363.91;;;10.19;59.70
48800;BME280;34611;47.964;7.982;2023-03-18T13:52:20;96355.16;;;10.20;59.71
48800;BME280;34611;47.964;7.982;2023-03-18T14:13:34;96337.00;;;10.20;59.72
48800;BME280;34611;47.964;7.982;2023-03-18T14:20:36;96325.91;;;10.18;59.66
48800;BME280;34611;47.964;7.982;2023-03-18T14:28:11;96339.59;;;10.20;59.75
48800;BME280;34611;47.964;7.982;2023-03-18T14:49:42;96313.63;;;10.20;59.79
48800;BME280;34611;47.964;7.982;2023-03-18T14:56:47;96323.19;;;10.19;59.59
48800;BME280;34611;47.964;7.982;2023-03-18T15:03:51;96324.81;;;10.20;59.75
48800;BME280;34611;47.964;7.982;2023-03-18T15:10:52;96318.81;;;10.20;59.65
48800;BME280;34611;47.964;7.982;2023-03-18T15:17:53;96327.41;;;10.20;59.83
48800;BME280;34611;47.964;7.982;2023-03-18T15:24:56;96323.19;;;10.19;59.82
48800;BME280;34611;47.964;7.982;2023-03-18T15:32:07;96318.00;;;10.19;59.80
48800;BME280;34611;47.964;7.982;2023-03-18T15:46:27;96324.00;;;10.20;59.65
48800;BME280;34611;47.964;7.982;2023-03-18T15:53:34;96321.41;;;10.20;59.66
48800;BME280;34611;47.964;7.982;2023-03-18T16:00:38;96330.00;;;10.20;59.73
48800;BME280;34611;47.964;7.982;2023-03-18T16:07:39;96332.59;;;10.20;59.63
48800;BME280;34611;47.964;7.982;2023-03-18T16:14:40;96336.03;;;10.21;59.59
48800;BME280;34611;47.964;7.982;2023-03-18T16:21:41;96334.41;;;10.20;59.79
48800;BME280;34611;47.964;7.982;2023-03-18T16:28:42;96345.59;;;10.20;59.79
48800;BME280;34611;47.964;7.982;2023-03-18T16:35:54;96349.97;;;10.20;59.74
48800;BME280;34611;47.964;7.982;2023-03-18T16:42:55;96356.78;;;10.21;59.67
48800;BME280;34611;47.964;7.982;2023-03-18T16:49:56;96364.59;;;10.21;59.68
48800;BME280;34611;47.964;7.982;2023-03-18T16:56:58;96366.38;;;10.20;59.86
48800;BME280;34611;47.964;7.982;2023-03-18T17:03:58;96368.84;;;10.22;59.76
48800;BME280;34611;47.964;7.982;2023-03-18T17:10:58;96373.22;;;10.21;59.67
48800;BME280;34611;47.964;7.982;2023-03-18T17:18:00;96375.94;;;10.20;59.65
48800;BME280;34611;47.964;7.982;2023-03-18T17:25:03;96390.44;;;10.22;59.66
48800;BME280;34611;47.964;7.982;2023-03-18T17:32:04;96398.34;;;10.21;59.77
48800;BME280;34611;47.964;7.982;2023-03-18T17:39:04;96396.59;;;10.21;59.60
48800;BME280;34611;47.964;7.982;2023-03-18T17:46:05;96405.22;;;10.22;59.71
48800;BME280;34611;47.964;7.982;2023-03-18T17:53:05;96389.63;;;10.22;59.84
48800;BME280;34611;47.964;7.982;2023-03-18T18:00:07;96390.56;;;10.21;59.69
48800;BME280;34611;47.964;7.982;2023-03-18T18:07:14;96400.00;;;10.22;59.64
48800;BME280;34611;47.964;7.982;2023-03-18T18:14:16;96411.22;;;10.22;59.72
48800;BME280;34611;47.964;7.982;2023-03-18T18:21:18;96417.38;;;10.21;59.63
48800;BME280;34611;47.964;7.982;2023-03-18T18:28:20;96417.38;;;10.21;59.79
48800;BME280;34611;47.964;7.982;2023-03-18T18:35:21;96423.41;;;10.22;59.66
48800;BME280;34611;47.964;7.982;2023-03-18T18:42:21;96426.00;;;10.22;59.75
48800;BME280;34611;47.964;7.982;2023-03-18T18:49:22;96425.19;;;10.21;59.63
48800;BME280;34611;47.964;7.982;2023-03-18T18:56:25;96430.38;;;10.21;59.59
48800;BME280;34611;47.964;7.982;2023-03-18T19:03:28;96438.16;;;10.21;59.79
48800;BME280;34611;47.964;7.982;2023-03-18T19:10:30;96443.34;;;10.21;59.69
48800;BME280;34611;47.964;7.982;2023-03-18T19:17:30;96457.16;;;10.22;59.79
48800;BME280;34611;47.964;7.982;2023-03-18T19:24:31;96462.34;;;10.22;59.83
48800;BME280;34611;47.964;7.982;2023-03-18T19:31:32;96451.97;;;10.22;59.69
48800;BME280;34611;47.964;7.982;2023-03-18T19:38:34;96457.16;;;10.22;59.81
48800;BME280;34611;47.964;7.982;2023-03-18T19:45:35;96463.16;;;10.22;59.67
48800;BME280;34611;47.964;7.982;2023-03-18T19:52:35;96470.97;;;10.22;59.88
48800;BME280;34611;47.964;7.982;2023-03-18T19:59:35;96469.19;;;10.23;59.71
48800;BME280;34611;47.964;7.982;2023-03-18T20:06:35;96475.34;;;10.22;59.61
48800;BME280;34611;47.964;7.982;2023-03-18T20:13:36;96474.38;;;10.23;59.73
48800;BME280;34611;47.964;7.982;2023-03-18T20:20:36;96482.16;;;10.23;59.81
48800;BME280;34611;47.964;7.982;2023-03-18T20:27:36;96486.53;;;10.22;59.63
48800;BME280;34611;47.964;7.982;2023-03-18T20:34:37;96500.34;;;10.23;59.81
48800;BME280;34611;47.964;7.982;2023-03-18T20:41:38;96503.91;;;10.22;59.88
48800;BME280;34611;47.964;7.982;2023-03-18T20:48:38;96519.38;;;10.23;59.81
48800;BME280;34611;47.964;7.982;2023-03-18T20:55:39;96514.31;;;10.22;59.69
48800;BME280;34611;47.964;7.982;2023-03-18T21:02:40;96520.31;;;10.22;59.88
48800;BME280;34611;47.964;7.982;2023-03-18T21:09:41;96531.53;;;10.23;59.62
48800;BME280;34611;47.964;7.982;2023-03-18T21:16:42;96520.19;;;10.24;59.69
48800;BME280;34611;47.964;7.982;2023-03-18T21:23:43;96524.56;;;10.23;59.81
48800;BME280;34611;47.964;7.982;2023-03-18T21:30:44;96521.13;;;10.23;59.75
48800;BME280;34611;47.964;7.982;2023-03-18T21:37:45;96521.13;;;10.23;59.80
48800;BME280;34611;47.964;7.982;2023-03-18T21:44:46;96518.53;;;10.23;59.82
48800;BME280;34611;47.964;7.982;2023-03-18T21:51:46;96521.13;;;10.23;59.60
48800;BME280;34611;47.964;7.982;2023-03-18T21:58:46;96521.13;;;10.23;59.64
48800;BME280;34611;47.964;7.982;2023-03-18T22:05:47;96509.13;;;10.22;59.62
48800;BME280;34611;47.964;7.982;2023-03-18T22:12:49;96515.00;;;10.24;59.65
48800;BME280;34611;47.964;7.982;2023-03-18T22:19:49;96509.81;;;10.24;59.64
48800;BME280;34611;47.964;7.982;2023-03-18T22:26:49;96510.75;;;10.23;59.83
48800;BME280;34611;47.964;7.982;2023-03-18T22:33:50;96515.00;;;10.24;59.80
48800;BME280;34611;47.964;7.982;2023-03-18T22:40:51;96511.59;;;10.23;59.72
48800;BME280;34611;47.964;7.982;2023-03-18T22:47:56;96528.78;;;10.24;59.80
48800;BME280;34611;47.964;7.982;2023-03-18T22:54:58;96538.38;;;10.24;59.81
48800;BME280;34611;47.964;7.982;2023-03-18T23:01:59;96545.34;;;10.23;59.87
48800;BME280;34611;47.964;7.982;2023-03-18T23:08:59;96551.38;;;10.24;59.66
48800;BME280;34611;47.964;7.982;2023-03-18T23:16:00;96547.09;;;10.23;59.63
48800;BME280;34611;47.964;7.982;2023-03-18T23:23:03;96556.56;;;10.24;59.90
48800;BME280;34611;47.964;7.982;2023-03-18T23:30:03;96559.97;;;10.24;59.67
48800;BME280;34611;47.964;7.982;2023-03-18T23:37:03;96564.47;;;10.22;59.77
48800;BME280;34611;47.964;7.982;2023-03-18T23:44:04;96557.50;;;10.23;59.78
48800;BME280;34611;47.964;7.982;2023-03-18T23:51:04;96567.88;;;10.23;59.63
48800;BME280;34611;47.964;7.982;2023-03-18T23:58:05;96574.75;;;10.24;59.72
